Time;durP1;ratioP1;P1;durP2;ratioP2;P2;SDS_P1;SDS_P2;PMS_P1;PMS_P2;Temp;Humidity;BMP_temperature;BMP_pressure;BME280_temperature;BME280_humidity;BME280_pressure;Samples;Min_cycle;Max_cycle;Signal;HPM_P1;HPM_P2
2024/02/23 00:02:17;;;;;;;1.50;0.43;;;;;;;5.57;82.15;93603.34;5022688;28;20186;-79
2024/02/23 00:04:42;;;;;;;2.83;0.90;;;;;;;5.20;82.30;93607.22;5018824;28;20264;-78
2024/02/23 00:07:07;;;;;;;1.50;0.50;;;;;;;5.40;81.62;93597.41;5016960;28;20186;-78
2024/02/23 00:09:33;;;;;;;2.70;0.80;;;;;;;5.51;80.85;93599.63;5021401;28;20279;-78
2024/02/23 00:11:59;;;;;;;1.87;0.77;;;;;;;5.40;80.08;93595.66;5013203;28;20714;-79
2024/02/23 00:14:24;;;;;;;1.70;0.70;;;;;;;5.49;80.32;93604.16;5005063;28;20287;-78
2024/02/23 00:16:49;;;;;;;4.53;0.70;;;;;;;5.38;81.09;93605.28;4998037;28;20206;-77
2024/02/23 00:19:17;;;;;;;5.07;0.80;;;;;;;5.48;79.12;93604.28;5017886;28;20245;-78
2024/02/23 00:21:47;;;;;;;2.03;0.80;;;;;;;5.38;78.88;93607.84;5016750;28;20294;-78
2024/02/23 00:24:13;;;;;;;4.33;1.30;;;;;;;5.31;79.57;93612.06;5016176;28;20247;-77
2024/02/23 00:26:38;;;;;;;1.77;0.80;;;;;;;5.36;79.72;93632.16;5010475;28;20282;-79
2024/02/23 00:29:03;;;;;;;3.77;0.60;;;;;;;5.36;79.57;93643.25;5016293;28;20183;-78
2024/02/23 00:31:29;;;;;;;3.27;1.17;;;;;;;5.24;80.32;93639.41;5006201;28;20309;-79
2024/02/23 00:33:54;;;;;;;1.70;0.60;;;;;;;5.35;80.25;93627.97;5003609;28;20207;-79
2024/02/23 00:36:20;;;;;;;2.47;0.53;;;;;;;5.55;79.54;93633.56;5011081;28;20193;-79
2024/02/23 00:38:45;;;;;;;2.57;0.80;;;;;;;5.51;79.09;93630.53;5011034;28;20244;-78
2024/02/23 00:41:13;;;;;;;1.83;0.70;;;;;;;5.33;79.64;93627.34;5017666;28;20191;-78
2024/02/23 00:43:39;;;;;;;4.27;0.80;;;;;;;5.29;78.96;93631.19;5017324;28;20260;-79
2024/02/23 00:46:05;;;;;;;2.60;0.60;;;;;;;5.53;78.80;93640.66;5007001;28;20183;-78
2024/02/23 00:48:30;;;;;;;3.00;0.90;;;;;;;5.33;78.76;93643.59;5021751;28;20679;-78
2024/02/23 00:50:56;;;;;;;2.80;0.90;;;;;;;5.34;77.93;93639.25;5005586;28;20202;-79
2024/02/23 00:53:21;;;;;;;3.37;0.93;;;;;;;5.20;78.17;93642.44;5009736;28;21140;-79
2024/02/23 00:55:47;;;;;;;4.50;0.77;;;;;;;5.33;78.11;93651.31;5018266;28;20191;-78
2024/02/23 00:58:13;;;;;;;6.37;0.87;;;;;;;5.54;77.36;93662.88;5021216;28;20565;-77
2024/02/23 01:00:38;;;;;;;1.77;0.90;;;;;;;5.65;77.63;93665.09;5018547;28;20195;-77
2024/02/23 01:03:04;;;;;;;3.50;0.80;;;;;;;5.49;77.79;93647.13;5019155;28;20203;-79
2024/02/23 01:05:29;;;;;;;2.60;0.87;;;;;;;5.44;77.98;93645.03;5020797;28;20592;-78
2024/02/23 01:07:54;;;;;;;2.80;0.80;;;;;;;5.52;77.95;93652.72;5020809;28;20187;-78
2024/02/23 01:10:20;;;;;;;3.17;0.73;;;;;;;5.64;77.89;93654.00;5020171;28;20199;-79
2024/02/23 01:12:45;;;;;;;2.93;0.70;;;;;;;5.37;78.36;93647.44;5019977;28;20218;-78
2024/02/23 01:15:10;;;;;;;4.47;1.00;;;;;;;5.60;78.97;93633.91;5019901;28;20191;-77
2024/02/23 01:17:35;;;;;;;3.03;1.00;;;;;;;5.26;78.36;93632.31;5019909;28;20194;-79
2024/02/23 01:20:01;;;;;;;2.97;0.77;;;;;;;5.44;78.61;93644.22;5018031;28;20198;-78
2024/02/23 01:22:26;;;;;;;5.63;1.13;;;;;;;5.38;78.47;93661.91;5002822;28;20187;-79
2024/02/23 01:24:52;;;;;;;1.53;0.53;;;;;;;5.27;79.24;93658.88;5004712;28;20276;-79
2024/02/23 01:27:18;;;;;;;2.33;0.70;;;;;;;5.51;79.35;93658.06;5004989;28;20179;-77
2024/02/23 01:29:43;;;;;;;2.60;1.00;;;;;;;5.33;80.37;93669.31;5008440;28;20269;-78
2024/02/23 01:32:09;;;;;;;1.10;0.60;;;;;;;5.34;81.05;93683.00;5018343;28;20215;-77
2024/02/23 01:34:34;;;;;;;1.87;0.80;;;;;;;5.37;81.79;93683.47;5004663;28;20206;-79
2024/02/23 01:36:59;;;;;;;1.83;0.70;;;;;;;5.26;82.76;93683.78;5017105;28;20242;-79
2024/02/23 01:39:25;;;;;;;1.80;0.73;;;;;;;5.10;83.78;93681.22;5007928;28;20264;-77
2024/02/23 01:41:50;;;;;;;0.80;0.63;;;;;;;4.93;85.05;93682.97;5004707;28;20644;-78
2024/02/23 01:44:17;;;;;;;1.03;0.47;;;;;;;5.04;85.01;93694.72;5004458;28;20210;-78
2024/02/23 01:46:43;;;;;;;2.53;0.60;;;;;;;4.99;85.31;93695.19;5016251;28;20186;-78
2024/02/23 01:49:09;;;;;;;1.73;0.57;;;;;;;5.01;86.32;93695.03;5021952;28;20197;-79
2024/02/23 01:51:34;;;;;;;1.90;0.53;;;;;;;5.37;84.66;93688.63;5016731;28;20186;-79
2024/02/23 01:54:00;;;;;;;1.70;0.43;;;;;;;5.19;85.26;93695.69;5018836;28;20217;-78
2024/02/23 01:56:26;;;;;;;0.80;0.50;;;;;;;4.90;85.79;93685.06;5007277;28;20569;-79
2024/02/23 01:58:52;;;;;;;1.73;0.57;;;;;;;5.15;85.10;93689.28;5003297;28;20230;-78
2024/02/23 02:01:17;;;;;;;1.30;0.63;;;;;;;5.19;84.76;93700.84;5018053;28;20593;-78
2024/02/23 02:03:42;;;;;;;1.60;0.50;;;;;;;5.04;85.72;93692.97;5015548;28;20211;-79
2024/02/23 02:06:09;;;;;;;2.60;0.50;;;;;;;5.03;84.53;93693.91;5018392;28;20254;-79
2024/02/23 02:08:35;;;;;;;1.60;0.53;;;;;;;5.00;83.69;93693.44;5007151;28;20556;-79
2024/02/23 02:11:01;;;;;;;1.57;0.60;;;;;;;4.93;82.35;93692.44;5016756;28;20202;-79
2024/02/23 02:13:28;;;;;;;3.17;0.60;;;;;;;4.83;81.94;93688.25;5019952;28;20219;-78
2024/02/23 02:15:53;;;;;;;2.50;0.80;;;;;;;5.00;81.00;93704.50;5013414;28;20194;-78
2024/02/23 02:18:18;;;;;;;2.50;0.70;;;;;;;4.81;80.64;93699.66;5007521;28;20183;-76
2024/02/23 02:20:54;;;;;;;3.17;0.60;;;;;;;4.97;80.41;93699.69;5010306;28;20194;-76
2024/02/23 02:23:19;;;;;;;1.67;0.50;;;;;;;4.76;81.32;93707.03;5017604;28;20672;-76
2024/02/23 02:25:45;;;;;;;3.20;0.80;;;;;;;4.87;81.18;93706.75;5017919;28;20282;-78
2024/02/23 02:28:11;;;;;;;2.07;0.90;;;;;;;4.92;80.46;93711.41;5003487;28;20187;-78
2024/02/23 02:30:36;;;;;;;3.30;1.00;;;;;;;4.98;79.78;93710.78;5016309;28;20186;-77
2024/02/23 02:33:01;;;;;;;1.00;0.50;;;;;;;5.04;79.50;93699.88;5020369;28;20218;-78
2024/02/23 02:35:27;;;;;;;2.47;0.87;;;;;;;4.91;79.24;93700.31;5002780;28;20191;-77
2024/02/23 02:37:55;;;;;;;0.90;0.70;;;;;;;4.93;79.20;93693.25;5019100;28;20186;-78
2024/02/23 02:40:20;;;;;;;0.90;0.63;;;;;;;4.64;78.90;93695.44;5001817;28;20202;-78
2024/02/23 02:42:46;;;;;;;2.60;0.70;;;;;;;4.67;78.27;93698.50;5019690;28;20270;-77
2024/02/23 02:45:11;;;;;;;3.73;0.83;;;;;;;4.91;77.15;93694.38;5016179;28;20658;-77
2024/02/23 02:47:37;;;;;;;1.00;0.70;;;;;;;4.82;77.31;93691.78;5013439;28;20624;-79
2024/02/23 02:50:02;;;;;;;1.97;1.67;;;;;;;4.94;77.36;93689.72;5010495;28;20187;-77
2024/02/23 02:52:28;;;;;;;2.00;0.70;;;;;;;4.94;77.11;93694.06;5003005;28;20213;-77
2024/02/23 02:54:54;;;;;;;5.57;2.30;;;;;;;4.67;76.99;93708.78;5017339;28;20672;-78
2024/02/23 02:57:19;;;;;;;0.67;0.50;;;;;;;5.04;76.19;93707.59;5001908;28;20205;-78
2024/02/23 02:59:45;;;;;;;2.20;0.70;;;;;;;5.02;77.19;93709.50;5002269;28;20201;-78
2024/02/23 03:02:11;;;;;;;2.67;0.50;;;;;;;5.01;76.41;93708.69;5019359;28;20195;-77
2024/02/23 03:04:36;;;;;;;4.53;0.60;;;;;;;4.94;76.08;93709.47;5016220;28;20217;-77
2024/02/23 03:07:02;;;;;;;5.50;0.70;;;;;;;4.98;76.41;93710.78;5007778;28;20233;-78
2024/02/23 03:09:27;;;;;;;3.80;0.87;;;;;;;5.18;75.54;93716.44;5016527;28;20211;-78
2024/02/23 03:11:52;;;;;;;1.87;0.90;;;;;;;5.13;75.79;93698.13;5019157;28;20217;-78
2024/02/23 03:14:20;;;;;;;1.60;0.53;;;;;;;4.89;75.91;93707.41;5001220;28;20211;-78
2024/02/23 03:16:47;;;;;;;3.70;1.00;;;;;;;4.84;75.78;93697.56;5017715;28;20202;-79
2024/02/23 03:19:13;;;;;;;1.53;0.80;;;;;;;4.82;75.88;93693.56;5017789;28;20775;-79
2024/02/23 03:21:38;;;;;;;2.47;0.50;;;;;;;4.94;74.69;93687.13;5008719;28;20207;-77
2024/02/23 03:24:04;;;;;;;1.60;0.70;;;;;;;4.82;74.62;93696.13;5017214;28;20688;-79
2024/02/23 03:26:29;;;;;;;1.83;0.50;;;;;;;4.71;74.97;93688.72;5018784;28;20297;-79
2024/02/23 03:28:54;;;;;;;1.87;0.67;;;;;;;4.79;75.31;93691.31;5016085;28;20265;-79
2024/02/23 03:31:20;;;;;;;3.30;0.70;;;;;;;4.83;75.50;93693.38;5006572;28;20277;-78
2024/02/23 03:33:45;;;;;;;3.13;0.77;;;;;;;4.55;74.94;93689.47;5020745;28;20280;-78
2024/02/23 03:36:10;;;;;;;2.83;0.60;;;;;;;4.67;74.90;93693.34;5010884;28;20195;-78
2024/02/23 03:38:35;;;;;;;2.77;0.90;;;;;;;4.75;74.80;93688.22;4998756;28;20187;-77
2024/02/23 03:41:01;;;;;;;3.63;0.57;;;;;;;4.64;75.13;93692.88;5002188;28;20720;-77
2024/02/23 03:43:27;;;;;;;3.47;0.80;;;;;;;4.55;74.33;93685.13;5015715;28;20222;-79
2024/02/23 03:45:52;;;;;;;3.27;0.63;;;;;;;4.63;73.92;93693.84;5000054;28;20198;-78
2024/02/23 03:48:17;;;;;;;3.77;0.60;;;;;;;4.25;74.21;93696.75;5001588;28;20534;-79
2024/02/23 03:50:43;;;;;;;5.07;0.80;;;;;;;4.51;73.42;93701.84;5001744;28;20733;-78
2024/02/23 03:53:08;;;;;;;3.13;0.70;;;;;;;4.57;73.63;93704.75;5015302;28;20219;-78
2024/02/23 03:55:33;;;;;;;4.47;0.80;;;;;;;4.37;73.37;93709.34;5002680;28;20589;-77
2024/02/23 03:57:59;;;;;;;2.33;0.60;;;;;;;4.34;72.98;93710.44;5001450;28;20249;-78
2024/02/23 04:00:24;;;;;;;1.83;0.60;;;;;;;4.34;72.27;93715.59;5003870;28;20681;-78
2024/02/23 04:02:50;;;;;;;0.73;0.67;;;;;;;4.17;72.98;93719.84;4999131;28;20187;-79
2024/02/23 04:05:15;;;;;;;3.87;0.60;;;;;;;4.15;72.67;93708.94;5015785;28;20190;-78
2024/02/23 04:07:41;;;;;;;3.07;0.80;;;;;;;4.30;71.64;93692.91;5019939;28;20197;-77
2024/02/23 04:10:06;;;;;;;5.67;0.93;;;;;;;4.17;70.78;93691.59;5010000;28;20256;-78
2024/02/23 04:12:32;;;;;;;1.27;0.50;;;;;;;4.25;70.87;93683.91;5014033;28;20206;-79
2024/02/23 04:14:57;;;;;;;4.63;0.60;;;;;;;4.09;69.71;93688.97;5015536;28;20211;-77
2024/02/23 04:17:23;;;;;;;2.77;1.60;;;;;;;4.39;69.31;93685.06;5016514;28;20294;-77
2024/02/23 04:19:48;;;;;;;5.30;1.40;;;;;;;4.24;69.89;93689.19;5003414;28;20191;-78
2024/02/23 04:22:13;;;;;;;1.83;0.70;;;;;;;4.33;69.66;93692.59;5021354;28;20183;-77
2024/02/23 04:24:40;;;;;;;1.70;0.70;;;;;;;4.30;69.13;93688.59;5023925;28;20220;-78
2024/02/23 04:27:05;;;;;;;1.03;0.70;;;;;;;4.01;68.38;93683.81;5018539;28;20189;-79
2024/02/23 04:29:32;;;;;;;2.57;1.27;;;;;;;4.35;68.18;93665.81;5021159;28;20259;-79
2024/02/23 04:31:57;;;;;;;3.27;0.87;;;;;;;4.35;67.72;93665.00;5020730;28;20265;-78
2024/02/23 04:34:23;;;;;;;3.07;0.90;;;;;;;4.22;67.66;93670.56;5008725;28;20261;-78
2024/02/23 04:36:48;;;;;;;1.13;0.67;;;;;;;4.23;67.28;93669.59;5002116;28;20558;-78
2024/02/23 04:39:14;;;;;;;1.70;0.60;;;;;;;4.30;67.36;93655.19;5020492;28;20610;-79
2024/02/23 04:41:42;;;;;;;2.33;0.77;;;;;;;4.30;66.96;93665.44;5021310;28;20195;-78
2024/02/23 04:44:07;;;;;;;1.73;0.77;;;;;;;4.20;67.08;93667.34;5006137;28;20305;-78
2024/02/23 04:46:34;;;;;;;2.80;0.80;;;;;;;4.37;66.84;93681.06;5016872;28;20191;-78
2024/02/23 04:48:59;;;;;;;4.40;0.90;;;;;;;4.35;66.73;93677.84;5021335;28;20656;-79
2024/02/23 04:51:25;;;;;;;4.17;0.87;;;;;;;4.44;66.66;93666.63;5020467;28;20201;-79
2024/02/23 04:53:50;;;;;;;3.47;0.53;;;;;;;4.23;66.80;93670.41;5017202;28;20210;-77
2024/02/23 04:56:15;;;;;;;3.63;0.93;;;;;;;4.27;66.46;93678.63;5019455;28;20193;-79
2024/02/23 04:58:43;;;;;;;6.63;0.80;;;;;;;4.39;66.92;93674.00;5022399;28;20623;-77
2024/02/23 05:01:09;;;;;;;1.73;0.80;;;;;;;4.33;67.51;93669.47;5002220;28;20198;-77
2024/02/23 05:03:34;;;;;;;3.63;0.63;;;;;;;4.15;67.44;93672.13;5005630;28;20207;-77
2024/02/23 05:06:00;;;;;;;2.07;0.43;;;;;;;4.27;67.79;93660.63;5024097;28;20317;-79
2024/02/23 05:08:27;;;;;;;3.70;0.83;;;;;;;4.18;68.27;93667.50;5010665;28;20716;-79
2024/02/23 05:10:52;;;;;;;0.53;0.50;;;;;;;4.07;67.83;93665.22;5013821;28;20241;-77
2024/02/23 05:13:18;;;;;;;1.20;0.70;;;;;;;4.30;67.64;93670.59;5005352;28;20227;-79
2024/02/23 05:15:43;;;;;;;1.40;0.70;;;;;;;4.16;68.69;93673.78;5005866;28;20193;-78
2024/02/23 05:18:08;;;;;;;3.77;0.70;;;;;;;4.21;68.11;93674.91;5006524;28;20225;-77
2024/02/23 05:20:34;;;;;;;5.40;1.07;;;;;;;4.16;68.31;93679.72;5004934;28;20615;-78
2024/02/23 05:22:59;;;;;;;2.20;1.10;;;;;;;4.22;68.14;93676.50;5000667;28;20184;-79
2024/02/23 05:25:25;;;;;;;3.97;1.07;;;;;;;4.20;68.29;93681.00;5017530;28;20183;-78
2024/02/23 05:27:51;;;;;;;1.43;0.70;;;;;;;4.23;69.43;93685.81;5020548;28;20183;-78
2024/02/23 05:30:16;;;;;;;3.03;0.80;;;;;;;3.94;68.91;93682.81;5006178;28;20239;-79
2024/02/23 05:32:42;;;;;;;1.53;0.70;;;;;;;4.11;68.70;93683.69;5019949;28;20204;-78
2024/02/23 05:35:07;;;;;;;7.20;0.83;;;;;;;4.17;68.29;93686.44;5000565;28;20282;-78
2024/02/23 05:37:32;;;;;;;1.20;0.60;;;;;;;3.75;69.06;93691.53;5004251;28;20192;-79
2024/02/23 05:39:59;;;;;;;2.37;0.83;;;;;;;4.10;68.79;93693.16;5020140;28;20552;-78
2024/02/23 05:42:25;;;;;;;5.77;1.10;;;;;;;4.11;68.82;93691.41;5006618;28;20178;-79
2024/02/23 05:44:50;;;;;;;4.23;0.80;;;;;;;4.04;68.53;93688.63;5004311;28;20754;-79
2024/02/23 05:47:16;;;;;;;5.60;1.10;;;;;;;3.80;68.91;93676.50;5014894;28;20194;-78
2024/02/23 05:49:41;;;;;;;2.27;0.60;;;;;;;3.93;68.54;93688.91;5022941;28;20218;-78
2024/02/23 05:52:07;;;;;;;7.87;1.20;;;;;;;4.00;68.40;93696.81;5016741;28;20886;-79
2024/02/23 05:54:32;;;;;;;4.40;1.10;;;;;;;3.99;67.98;93696.00;5018334;28;20214;-78
2024/02/23 05:56:57;;;;;;;2.93;0.63;;;;;;;3.58;68.84;93695.75;5019968;28;20191;-78
2024/02/23 05:59:23;;;;;;;1.53;0.80;;;;;;;3.88;67.87;93702.19;5021745;28;20206;-78
2024/02/23 06:01:48;;;;;;;2.97;0.93;;;;;;;4.08;67.25;93707.94;5003500;28;20225;-78
2024/02/23 06:04:13;;;;;;;3.10;0.80;;;;;;;3.97;68.36;93710.75;5007540;28;20700;-77
2024/02/23 06:06:43;;;;;;;1.23;0.70;;;;;;;3.89;68.42;93701.25;5005619;28;20567;-78
2024/02/23 06:09:08;;;;;;;5.43;0.70;;;;;;;3.36;69.53;93717.59;5020109;28;20556;-79
2024/02/23 06:11:34;;;;;;;3.30;0.77;;;;;;;3.83;68.36;93708.75;5015257;28;20200;-77
2024/02/23 06:13:59;;;;;;;3.03;0.80;;;;;;;3.89;68.93;93718.41;5021231;28;20381;-79
2024/02/23 06:16:24;;;;;;;2.20;0.77;;;;;;;3.98;68.36;93720.06;5017694;28;20190;-78
2024/02/23 06:18:50;;;;;;;2.90;0.70;;;;;;;3.93;68.69;93720.53;5017471;28;20178;-78
2024/02/23 06:21:17;;;;;;;2.93;0.93;;;;;;;3.89;69.11;93728.69;5017432;28;20664;-78
2024/02/23 06:23:43;;;;;;;1.53;0.77;;;;;;;3.85;69.28;93732.50;5022265;28;20222;-79
2024/02/23 06:26:08;;;;;;;1.93;0.77;;;;;;;3.74;69.29;93715.59;5013963;28;20218;-80
2024/02/23 06:28:33;;;;;;;2.97;0.57;;;;;;;3.76;68.83;93729.06;5002835;28;20225;-79
2024/02/23 06:30:59;;;;;;;0.77;0.60;;;;;;;3.80;68.75;93730.41;5018581;28;20238;-79
2024/02/23 06:33:24;;;;;;;2.47;0.70;;;;;;;3.81;69.38;93742.28;5018904;28;20712;-77
2024/02/23 06:35:50;;;;;;;3.07;0.67;;;;;;;3.85;68.83;93732.50;5018428;28;20603;-78
2024/02/23 06:38:15;;;;;;;4.00;1.00;;;;;;;3.63;69.24;93749.22;5005370;28;20193;-77
2024/02/23 06:40:41;;;;;;;1.90;0.63;;;;;;;3.73;69.25;93746.56;5020550;28;20249;-78
2024/02/23 06:43:06;;;;;;;1.10;0.60;;;;;;;3.88;68.27;93745.03;5002978;28;20678;-79
2024/02/23 06:45:31;;;;;;;2.53;0.60;;;;;;;3.86;69.03;93750.31;5000662;28;20194;-79
2024/02/23 06:47:57;;;;;;;3.00;0.80;;;;;;;3.87;68.81;93751.94;5021777;28;20188;-79
2024/02/23 06:50:22;;;;;;;2.37;0.63;;;;;;;3.85;68.60;93755.63;5018918;28;20635;-78
2024/02/23 06:52:49;;;;;;;2.50;0.60;;;;;;;3.83;69.67;93752.41;5001390;28;20803;-79
2024/02/23 06:55:15;;;;;;;3.10;0.80;;;;;;;3.73;69.75;93749.13;5019928;28;20219;-78
2024/02/23 06:57:40;;;;;;;5.90;0.80;;;;;;;3.69;69.96;93754.53;5019864;28;20280;-77
2024/02/23 07:00:07;;;;;;;1.43;0.80;;;;;;;3.75;70.46;93747.19;5010124;28;20183;-77
2024/02/23 07:02:36;;;;;;;1.73;0.80;;;;;;;3.75;70.19;93748.00;5018301;28;20188;-78
2024/02/23 07:05:04;;;;;;;2.73;0.60;;;;;;;3.82;70.33;93754.16;5008194;28;20221;-78
2024/02/23 07:07:30;;;;;;;2.27;0.67;;;;;;;3.87;70.09;93761.41;5005178;28;20286;-79
2024/02/23 07:09:55;;;;;;;3.40;0.77;;;;;;;3.87;70.40;93772.47;5006639;28;20700;-79
2024/02/23 07:12:21;;;;;;;1.60;0.90;;;;;;;3.81;70.56;93772.28;5007575;28;20299;-77
2024/02/23 07:14:46;;;;;;;6.63;1.10;;;;;;;3.91;70.41;93770.44;5026339;28;20224;-78
2024/02/23 07:17:11;;;;;;;2.50;0.90;;;;;;;3.99;70.72;93780.75;5017541;28;20226;-77
2024/02/23 07:19:36;;;;;;;4.23;0.80;;;;;;;4.00;71.00;93772.09;5014818;28;20193;-78
2024/02/23 07:22:02;;;;;;;2.77;0.93;;;;;;;4.10;71.36;93772.78;5019217;28;20190;-77
2024/02/23 07:24:27;;;;;;;3.63;0.73;;;;;;;4.23;71.05;93772.38;5018436;28;20338;-77
2024/02/23 07:26:53;;;;;;;4.00;0.63;;;;;;;4.20;71.62;93772.69;5006581;28;20201;-78
2024/02/23 07:29:19;;;;;;;2.50;0.80;;;;;;;4.35;70.90;93785.78;5005731;28;20208;-78
2024/02/23 07:31:44;;;;;;;2.33;0.70;;;;;;;4.43;71.33;93778.91;5015510;28;20857;-78
2024/02/23 07:34:09;;;;;;;2.33;1.00;;;;;;;4.47;71.18;93780.22;5019893;28;20241;-78
2024/02/23 07:36:35;;;;;;;3.03;1.20;;;;;;;4.40;71.25;93775.84;5016159;28;20199;-76
2024/02/23 07:39:00;;;;;;;3.33;1.13;;;;;;;4.41;71.61;93775.66;5015330;28;20671;-78
2024/02/23 07:41:25;;;;;;;1.33;0.80;;;;;;;4.50;71.77;93776.53;5009346;28;20202;-79
2024/02/23 07:43:51;;;;;;;1.87;0.90;;;;;;;4.36;72.24;93780.47;5013927;28;20241;-80
2024/02/23 07:46:16;;;;;;;1.00;0.80;;;;;;;4.32;71.61;93789.44;5016352;28;20979;-77
2024/02/23 07:48:41;;;;;;;3.63;1.27;;;;;;;4.30;72.46;93777.72;5016192;28;20191;-77
2024/02/23 07:51:07;;;;;;;2.20;1.07;;;;;;;4.37;72.06;93781.28;5010643;28;20208;-78
2024/02/23 07:53:32;;;;;;;2.83;0.93;;;;;;;4.35;72.37;93776.31;5020172;28;20211;-79
2024/02/23 07:56:01;;;;;;;1.53;0.93;;;;;;;4.29;72.69;93774.34;5017645;28;20183;-79
2024/02/23 07:58:27;;;;;;;2.73;0.93;;;;;;;4.30;73.40;93770.00;5024293;28;20728;-79
2024/02/23 08:00:53;;;;;;;1.77;1.10;;;;;;;4.38;73.38;93775.19;5023992;28;20191;-80
2024/02/23 08:03:19;;;;;;;1.37;1.03;;;;;;;4.23;73.65;93775.75;5015968;28;20200;-79
2024/02/23 08:05:44;;;;;;;2.33;1.00;;;;;;;4.36;72.98;93780.47;5014328;28;20197;-79
2024/02/23 08:08:09;;;;;;;1.70;0.80;;;;;;;4.36;72.92;93784.81;5015757;28;20197;-79
2024/02/23 08:10:35;;;;;;;5.57;1.00;;;;;;;4.34;73.04;93781.59;5013533;28;20190;-79
2024/02/23 08:13:00;;;;;;;2.07;0.80;;;;;;;4.34;73.31;93784.97;5023453;28;20627;-79
2024/02/23 08:15:25;;;;;;;4.60;1.20;;;;;;;4.36;73.21;93789.97;5025735;28;20265;-79
2024/02/23 08:17:51;;;;;;;1.97;1.10;;;;;;;4.44;73.18;93788.25;5022932;28;20210;-79
2024/02/23 08:20:16;;;;;;;2.70;1.10;;;;;;;4.58;73.27;93789.41;5022933;28;20187;-78
2024/02/23 08:22:42;;;;;;;3.87;1.30;;;;;;;4.58;73.26;93784.28;5026692;28;20202;-78
2024/02/23 08:25:07;;;;;;;3.77;1.17;;;;;;;4.70;73.38;93779.69;5008837;28;20203;-79
2024/02/23 08:27:33;;;;;;;1.57;0.80;;;;;;;4.58;73.52;93778.31;5022657;28;20201;-77
2024/02/23 08:29:59;;;;;;;1.43;1.13;;;;;;;4.60;73.03;93769.53;5010348;28;20236;-78
2024/02/23 08:32:24;;;;;;;2.07;0.93;;;;;;;4.86;72.38;93778.91;5022957;28;20691;-77
2024/02/23 08:34:50;;;;;;;1.67;0.93;;;;;;;4.66;73.31;93774.03;5027972;28;20213;-78
2024/02/23 08:37:15;;;;;;;4.83;0.97;;;;;;;4.87;72.42;93770.25;5019044;28;20178;-78
2024/02/23 08:39:41;;;;;;;2.73;0.70;;;;;;;4.79;71.90;93764.13;5012015;28;20190;-79
2024/02/23 08:42:06;;;;;;;0.73;0.70;;;;;;;4.93;71.20;93756.75;5021605;28;20183;-79
2024/02/23 08:44:31;;;;;;;1.90;1.20;;;;;;;5.00;71.60;93747.44;5021538;28;20202;-79
2024/02/23 08:46:57;;;;;;;3.13;1.13;;;;;;;5.03;71.81;93747.91;5005549;28;20185;-79
2024/02/23 08:49:22;;;;;;;2.40;0.70;;;;;;;5.28;70.23;93742.81;5021953;28;20671;-78
2024/02/23 08:51:48;;;;;;;1.47;0.90;;;;;;;5.25;70.11;93738.81;5022341;28;20191;-79
2024/02/23 08:54:13;;;;;;;3.47;1.00;;;;;;;5.31;70.07;93729.66;5011309;28;20205;-78
2024/02/23 08:56:42;;;;;;;1.83;0.90;;;;;;;5.43;70.41;93728.38;5025314;28;20269;-78
2024/02/23 08:59:10;;;;;;;1.53;0.50;;;;;;;5.57;70.00;93727.72;5025715;28;20186;-79
2024/02/23 09:01:35;;;;;;;3.07;1.10;;;;;;;5.61;69.35;93725.63;5011928;28;20195;-78
2024/02/23 09:04:01;;;;;;;3.50;1.10;;;;;;;5.78;68.12;93726.41;5023076;28;20687;-78
2024/02/23 09:06:26;;;;;;;4.17;0.80;;;;;;;5.40;67.40;93726.94;5008780;28;20197;-78
2024/02/23 09:08:52;;;;;;;1.80;0.70;;;;;;;5.92;67.13;93726.59;5020907;28;20186;-78
2024/02/23 09:11:17;;;;;;;7.47;1.77;;;;;;;6.11;67.00;93734.94;5020603;28;20607;-79
2024/02/23 09:13:43;;;;;;;4.20;1.00;;;;;;;6.19;66.17;93743.47;5021677;28;20264;-78
2024/02/23 09:16:08;;;;;;;3.43;1.00;;;;;;;6.18;65.15;93741.03;5007427;28;20183;-78
2024/02/23 09:18:34;;;;;;;2.60;0.67;;;;;;;6.09;64.44;93747.97;5023015;28;20191;-78
2024/02/23 09:21:00;;;;;;;2.37;0.77;;;;;;;6.37;64.39;93743.25;5009809;28;20198;-78
2024/02/23 09:23:25;;;;;;;1.27;0.67;;;;;;;6.49;64.25;93748.84;5022085;28;20578;-79
2024/02/23 09:25:51;;;;;;;3.37;1.20;;;;;;;6.58;63.90;93754.78;5020581;28;20194;-80
2024/02/23 09:28:16;;;;;;;5.47;1.67;;;;;;;6.69;62.34;93749.25;5011714;28;20191;-79
2024/02/23 09:30:41;;;;;;;3.67;1.00;;;;;;;6.77;62.29;93750.00;5010693;28;20719;-79
2024/02/23 09:33:08;;;;;;;7.13;1.20;;;;;;;6.74;60.66;93747.78;5009438;28;20206;-80
2024/02/23 09:35:33;;;;;;;2.53;0.70;;;;;;;7.06;60.43;93751.16;5002908;28;20180;-79
2024/02/23 09:37:58;;;;;;;3.10;0.77;;;;;;;7.01;59.56;93754.25;5021923;28;20281;-79
2024/02/23 09:40:24;;;;;;;3.67;0.90;;;;;;;7.12;59.66;93755.66;5004400;28;20238;-79
2024/02/23 09:42:56;;;;;;;4.10;1.00;;;;;;;7.32;59.52;93749.06;5019962;28;20237;-79
2024/02/23 09:45:21;;;;;;;3.47;1.00;;;;;;;7.21;59.61;93766.72;5019688;28;20187;-79
2024/02/23 09:47:47;;;;;;;8.40;6.27;;;;;;;7.24;57.28;93758.63;5002285;28;20187;-79
2024/02/23 09:50:13;;;;;;;2.67;1.77;;;;;;;7.16;56.84;93759.50;5014686;28;20333;-79
2024/02/23 09:52:38;;;;;;;3.90;0.80;;;;;;;7.31;56.54;93757.78;5003187;28;20214;-80
2024/02/23 09:55:04;;;;;;;3.13;0.80;;;;;;;7.15;56.61;93768.22;5019691;28;20234;-79
2024/02/23 09:57:30;;;;;;;3.83;0.60;;;;;;;6.75;55.15;93776.97;5014298;28;20190;-79
2024/02/23 09:59:55;;;;;;;2.10;1.20;;;;;;;6.99;55.16;93763.16;5007287;28;20195;-79
2024/02/23 10:02:21;;;;;;;4.47;0.83;;;;;;;7.14;54.97;93770.97;5008995;28;20203;-79
2024/02/23 10:04:48;;;;;;;3.03;0.97;;;;;;;7.12;55.41;93765.16;5021398;28;20222;-79
2024/02/23 10:07:17;;;;;;;6.37;1.03;;;;;;;7.31;53.96;93769.91;5011872;28;20187;-78
2024/02/23 10:09:42;;;;;;;6.97;1.10;;;;;;;7.63;53.99;93768.88;5003690;28;20222;-80
2024/02/23 10:12:08;;;;;;;2.30;0.90;;;;;;;6.98;54.40;93772.69;5009087;28;20240;-79
2024/02/23 10:14:33;;;;;;;1.70;0.80;;;;;;;6.93;54.19;93777.53;5020654;28;20207;-79
2024/02/23 10:16:59;;;;;;;1.70;0.93;;;;;;;7.06;53.65;93771.81;5007219;28;20187;-79
2024/02/23 10:19:28;;;;;;;2.37;0.70;;;;;;;7.08;53.57;93768.09;5009843;28;20298;-78
2024/02/23 10:21:54;;;;;;;0.93;0.47;;;;;;;7.35;52.92;93776.34;5017223;28;20276;-79
2024/02/23 10:24:19;;;;;;;2.10;0.90;;;;;;;7.33;52.75;93773.09;5021038;28;20215;-79
2024/02/23 10:26:44;;;;;;;3.87;0.90;;;;;;;6.84;52.88;93777.72;5026924;28;20241;-79
2024/02/23 10:29:10;;;;;;;1.90;0.97;;;;;;;6.81;53.75;93790.00;5020371;28;20194;-79
2024/02/23 10:31:39;;;;;;;2.10;0.80;;;;;;;7.35;52.63;93786.66;5015669;28;20197;-79
2024/02/23 10:34:11;;;;;;;3.20;1.00;;;;;;;7.72;52.01;93785.94;5012533;28;20240;-79
2024/02/23 10:36:40;;;;;;;3.00;0.67;;;;;;;7.72;52.00;93779.97;5001862;28;20186;-78
2024/02/23 10:39:05;;;;;;;3.00;0.60;;;;;;;7.63;51.87;93774.06;5021761;28;20190;-80
2024/02/23 10:41:34;;;;;;;2.77;0.60;;;;;;;8.33;52.17;93775.56;5017861;28;20207;-80
2024/02/23 10:44:00;;;;;;;0.90;0.70;;;;;;;8.57;52.42;93772.75;5025728;28;20201;-80
2024/02/23 10:46:25;;;;;;;3.63;0.50;;;;;;;8.54;50.51;93762.75;5003871;28;20204;-80
2024/02/23 10:48:51;;;;;;;3.77;0.80;;;;;;;9.07;49.92;93758.22;5004716;28;20209;-78
2024/02/23 10:51:17;;;;;;;2.10;0.90;;;;;;;9.14;47.96;93758.31;5000843;28;20195;-79
2024/02/23 10:53:43;;;;;;;2.40;0.70;;;;;;;9.63;47.56;93769.59;5019332;28;20293;-78
2024/02/23 10:56:10;;;;;;;1.90;0.53;;;;;;;9.89;48.21;93771.63;5017972;28;20183;-79
2024/02/23 10:58:35;;;;;;;2.53;0.87;;;;;;;9.81;47.63;93771.75;5010434;28;20648;-79
2024/02/23 11:01:02;;;;;;;3.73;1.00;;;;;;;9.64;48.57;93767.81;5022850;28;20205;-79
2024/02/23 11:03:33;;;;;;;3.53;1.00;;;;;;;9.65;48.51;93764.22;5018279;28;20199;-78
2024/02/23 11:06:02;;;;;;;3.60;0.60;;;;;;;9.51;47.83;93771.06;5004759;28;20202;-79
2024/02/23 11:08:32;;;;;;;3.30;0.70;;;;;;;8.68;49.15;93772.28;5011554;28;20187;-79
2024/02/23 11:11:07;;;;;;;2.67;0.60;;;;;;;9.01;49.79;93764.13;5006488;28;20256;-80
2024/02/23 11:13:40;;;;;;;1.90;0.63;;;;;;;9.02;48.40;93763.16;5020174;28;20213;-79
2024/02/23 11:16:07;;;;;;;3.07;0.70;;;;;;;8.99;48.61;93750.56;5006911;28;20528;-79
2024/02/23 11:18:35;;;;;;;2.73;0.80;;;;;;;9.20;48.46;93758.38;5006609;28;20238;-78
2024/02/23 11:21:02;;;;;;;1.10;0.50;;;;;;;8.32;48.56;93758.44;5018551;28;20245;-79
2024/02/23 11:23:45;;;;;;;5.70;0.80;;;;;;;8.54;48.73;93765.34;5021207;28;20586;-79
2024/02/23 11:26:12;;;;;;;2.53;0.60;;;;;;;8.46;48.96;93757.66;5021405;28;20824;-79
2024/02/23 11:28:53;;;;;;;2.33;0.60;;;;;;;8.61;48.82;93766.22;5016634;28;20270;-80
2024/02/23 11:31:25;;;;;;;1.97;0.70;;;;;;;8.47;49.15;93765.22;5015962;28;20249;-79
2024/02/23 11:33:52;;;;;;;1.53;0.67;;;;;;;8.97;48.72;93768.06;5015800;28;20226;-80
2024/02/23 11:36:32;;;;;;;6.37;0.90;;;;;;;8.90;48.09;93767.97;5017089;28;20191;-79